Time;durP1;ratioP1;P1;durP2;ratioP2;P2;SDS_P1;SDS_P2;PMS_P1;PMS_P2;Temp;Humidity;BMP_temperature;BMP_pressure;BME280_temperature;BME280_humidity;BME280_pressure;Samples;Min_cycle;Max_cycle;Signal;HPM_P1;HPM_P2
2023/12/12 00:01:34;;;;;;;9.82;3.22;;;;;;;;;;5051975;28;20045;-65
2023/12/12 00:04:00;;;;;;;7.75;2.92;;;;;;;;;;5054592;28;20067;-65
2023/12/12 00:06:26;;;;;;;8.10;2.65;;;;;;;;;;5050258;28;20065;-65
2023/12/12 00:08:52;;;;;;;7.80;2.95;;;;;;;;;;5049988;28;20044;-66
2023/12/12 00:11:18;;;;;;;8.07;3.33;;;;;;;;;;5051710;28;20048;-65
2023/12/12 00:13:44;;;;;;;8.82;3.20;;;;;;;;;;5049724;28;20041;-66
2023/12/12 00:16:10;;;;;;;7.40;3.30;;;;;;;;;;5050756;28;20182;-65
2023/12/12 00:18:36;;;;;;;5.85;2.33;;;;;;;;;;5048714;28;20037;-66
2023/12/12 00:21:03;;;;;;;5.70;2.13;;;;;;;;;;5048943;28;20126;-65
2023/12/12 00:23:29;;;;;;;7.65;2.80;;;;;;;;;;5032177;28;20048;-65
2023/12/12 00:25:55;;;;;;;8.18;3.03;;;;;;;;;;5053179;28;20048;-65
2023/12/12 00:28:21;;;;;;;9.23;2.70;;;;;;;;;;5032205;28;20051;-66
2023/12/12 00:30:47;;;;;;;11.75;2.85;;;;;;;;;;5052969;28;20405;-65
2023/12/12 00:33:13;;;;;;;8.10;3.00;;;;;;;;;;5041998;28;20053;-65
2023/12/12 00:35:39;;;;;;;8.75;3.05;;;;;;;;;;5041360;28;20455;-65
2023/12/12 00:38:05;;;;;;;7.32;2.78;;;;;;;;;;5051623;28;20037;-66
2023/12/12 00:40:32;;;;;;;9.90;2.80;;;;;;;;;;5048974;28;20100;-66
2023/12/12 00:42:58;;;;;;;5.30;2.42;;;;;;;;;;5045209;28;20076;-65
2023/12/12 00:45:24;;;;;;;6.05;2.45;;;;;;;;;;5053342;28;20081;-65
2023/12/12 00:47:50;;;;;;;7.07;2.75;;;;;;;;;;5041212;28;20033;-66
2023/12/12 00:50:16;;;;;;;8.15;2.42;;;;;;;;;;5044846;28;20076;-66
2023/12/12 00:52:42;;;;;;;8.20;2.65;;;;;;;;;;5045896;28;20065;-65
2023/12/12 00:55:09;;;;;;;8.45;2.50;;;;;;;;;;5049902;28;20040;-65
2023/12/12 00:57:35;;;;;;;7.82;2.70;;;;;;;;;;5047543;28;20047;-65
2023/12/12 01:00:02;;;;;;;5.70;2.35;;;;;;;;;;5056172;28;20048;-66
2023/12/12 01:02:28;;;;;;;5.78;2.33;;;;;;;;;;5041134;28;20045;-65
2023/12/12 01:04:54;;;;;;;9.38;3.33;;;;;;;;;;5030286;28;20116;-65
2023/12/12 01:07:20;;;;;;;5.35;2.60;;;;;;;;;;5035920;28;20103;-65
2023/12/12 01:09:46;;;;;;;6.30;2.28;;;;;;;;;;5041800;28;20034;-65
2023/12/12 01:12:12;;;;;;;5.55;2.78;;;;;;;;;;5046416;28;20037;-65
2023/12/12 01:14:38;;;;;;;7.47;3.10;;;;;;;;;;5042798;28;20108;-65
2023/12/12 01:17:04;;;;;;;10.15;3.00;;;;;;;;;;5046141;28;20068;-65
2023/12/12 01:19:30;;;;;;;9.60;3.10;;;;;;;;;;5044131;28;20493;-65
2023/12/12 01:21:56;;;;;;;7.63;2.90;;;;;;;;;;5043126;28;20064;-65
2023/12/12 01:24:22;;;;;;;7.28;3.15;;;;;;;;;;5043126;28;20516;-65
2023/12/12 01:26:48;;;;;;;6.25;2.95;;;;;;;;;;5047779;28;20044;-66
2023/12/12 01:29:16;;;;;;;6.75;3.22;;;;;;;;;;5042209;28;20545;-66
2023/12/12 01:31:43;;;;;;;9.55;3.65;;;;;;;;;;5043360;28;20385;-65
2023/12/12 01:34:09;;;;;;;5.53;2.90;;;;;;;;;;5047640;28;20426;-65
2023/12/12 01:36:35;;;;;;;6.88;2.97;;;;;;;;;;5041047;28;20164;-65
2023/12/12 01:39:01;;;;;;;5.65;2.85;;;;;;;;;;5050521;28;20120;-65
2023/12/12 01:41:27;;;;;;;5.88;3.10;;;;;;;;;;5044905;28;20043;-65
2023/12/12 01:43:53;;;;;;;8.20;3.60;;;;;;;;;;5039670;28;20097;-66
2023/12/12 01:46:20;;;;;;;7.88;3.60;;;;;;;;;;5044516;28;20125;-65
2023/12/12 01:48:47;;;;;;;11.95;3.60;;;;;;;;;;5046521;28;20051;-65
2023/12/12 01:51:13;;;;;;;7.43;3.80;;;;;;;;;;5050239;28;20049;-65
2023/12/12 01:53:47;;;;;;;10.07;4.22;;;;;;;;;;5038780;28;20039;-66
2023/12/12 01:56:13;;;;;;;6.50;4.10;;;;;;;;;;5049887;28;20040;-65
2023/12/12 01:58:41;;;;;;;6.50;3.60;;;;;;;;;;5048762;28;20044;-65
2023/12/12 02:01:07;;;;;;;9.10;4.57;;;;;;;;;;5047265;28;20048;-65
2023/12/12 02:03:35;;;;;;;9.88;4.25;;;;;;;;;;5042833;28;20095;-65
2023/12/12 02:06:01;;;;;;;9.75;4.13;;;;;;;;;;5051663;28;20095;-65
2023/12/12 02:08:28;;;;;;;8.77;4.57;;;;;;;;;;5043576;28;20036;-65
2023/12/12 02:10:54;;;;;;;8.10;4.25;;;;;;;;;;5048683;28;20460;-65
2023/12/12 02:13:20;;;;;;;13.55;5.00;;;;;;;;;;5031715;28;20099;-66
2023/12/12 02:15:47;;;;;;;8.52;4.93;;;;;;;;;;5051945;28;20047;-65
2023/12/12 02:18:16;;;;;;;9.57;4.43;;;;;;;;;;5046044;28;20033;-66
2023/12/12 02:20:42;;;;;;;9.18;5.28;;;;;;;;;;5046820;28;20045;-65
2023/12/12 02:23:08;;;;;;;10.45;4.90;;;;;;;;;;5048852;28;20070;-65
2023/12/12 02:25:35;;;;;;;10.75;5.45;;;;;;;;;;5054361;28;20045;-66
2023/12/12 02:28:01;;;;;;;12.20;5.63;;;;;;;;;;5051058;28;20037;-66
2023/12/12 02:30:27;;;;;;;9.65;5.47;;;;;;;;;;5051242;28;20130;-66
2023/12/12 02:32:53;;;;;;;14.00;5.80;;;;;;;;;;5027781;28;20086;-66
2023/12/12 02:35:19;;;;;;;14.25;6.13;;;;;;;;;;5051560;28;20044;-66
2023/12/12 02:37:45;;;;;;;9.20;4.78;;;;;;;;;;5031728;28;20048;-65
2023/12/12 02:40:11;;;;;;;12.27;6.03;;;;;;;;;;5054508;28;20075;-65
2023/12/12 02:42:42;;;;;;;11.48;5.50;;;;;;;;;;5048144;28;20040;-66
2023/12/12 02:45:08;;;;;;;11.93;6.03;;;;;;;;;;5048131;28;20041;-66
2023/12/12 02:47:35;;;;;;;13.90;5.53;;;;;;;;;;5061254;22;20052;-65
2023/12/12 02:50:01;;;;;;;9.23;5.55;;;;;;;;;;5076371;28;20052;-65
2023/12/12 02:52:27;;;;;;;10.93;5.70;;;;;;;;;;5088853;28;20044;-65
2023/12/12 02:54:53;;;;;;;14.38;5.93;;;;;;;;;;5079994;28;20510;-65
2023/12/12 02:57:19;;;;;;;12.52;5.60;;;;;;;;;;5086043;28;20044;-65
2023/12/12 02:59:45;;;;;;;12.63;5.57;;;;;;;;;;5086917;28;20042;-66
2023/12/12 03:02:11;;;;;;;54.03;7.82;;;;;;;;;;5074116;28;20427;-66
2023/12/12 03:04:37;;;;;;;12.05;6.55;;;;;;;;;;5072646;28;20036;-66
2023/12/12 03:07:03;;;;;;;10.88;5.63;;;;;;;;;;5073003;28;20567;-66
2023/12/12 03:09:29;;;;;;;10.75;5.70;;;;;;;;;;5072865;28;20045;-67
2023/12/12 03:11:56;;;;;;;13.48;6.07;;;;;;;;;;5079195;28;20552;-66
2023/12/12 03:14:27;;;;;;;17.27;6.75;;;;;;;;;;5084248;28;20087;-66
2023/12/12 03:16:53;;;;;;;;;;;;;;;;;;5078581;28;20474;-66
2023/12/12 03:19:19;;;;;;;12.18;6.60;;;;;;;;;;5075522;28;20011;-66
2023/12/12 03:21:45;;;;;;;11.60;5.75;;;;;;;;;;5085415;28;20087;-67
2023/12/12 03:24:11;;;;;;;14.15;6.25;;;;;;;;;;5085979;28;20040;-66
2023/12/12 03:26:37;;;;;;;12.45;5.55;;;;;;;;;;5086024;28;20044;-66
2023/12/12 03:29:03;;;;;;;12.52;6.00;;;;;;;;;;5074533;28;20036;-67
2023/12/12 03:31:29;;;;;;;16.45;5.70;;;;;;;;;;5084706;28;20040;-66
2023/12/12 03:33:55;;;;;;;10.90;5.57;;;;;;;;;;5091591;28;20556;-66
2023/12/12 03:36:21;;;;;;;16.27;5.78;;;;;;;;;;5091308;28;20045;-67
2023/12/12 03:38:47;;;;;;;13.13;6.43;;;;;;;;;;5080320;28;20076;-66
2023/12/12 03:41:13;;;;;;;14.65;7.20;;;;;;;;;;5089439;28;20049;-66
2023/12/12 03:43:39;;;;;;;13.70;6.35;;;;;;;;;;5083906;28;20044;-66
2023/12/12 03:46:05;;;;;;;12.55;5.80;;;;;;;;;;5094049;28;20080;-67
2023/12/12 03:48:31;;;;;;;13.30;5.68;;;;;;;;;;5079610;28;20032;-67
2023/12/12 03:50:58;;;;;;;12.32;5.95;;;;;;;;;;5094969;28;20046;-66
2023/12/12 03:53:24;;;;;;;12.90;5.78;;;;;;;;;;5094797;28;20410;-66
2023/12/12 03:55:50;;;;;;;15.02;5.95;;;;;;;;;;5081572;28;20508;-67
2023/12/12 03:58:16;;;;;;;20.05;7.43;;;;;;;;;;5074515;28;20121;-66
2023/12/12 04:00:42;;;;;;;14.23;6.63;;;;;;;;;;5093912;28;20048;-66
2023/12/12 04:03:08;;;;;;;16.83;7.25;;;;;;;;;;5091889;28;20040;-66
2023/12/12 04:05:34;;;;;;;11.70;6.70;;;;;;;;;;5081121;28;20040;-67
2023/12/12 04:08:00;;;;;;;13.02;6.18;;;;;;;;;;5078709;28;20028;-67
2023/12/12 04:10:26;;;;;;;13.30;6.70;;;;;;;;;;5094815;28;20032;-67
2023/12/12 04:12:52;;;;;;;12.57;6.05;;;;;;;;;;5078914;28;20041;-66
2023/12/12 04:15:18;;;;;;;15.90;6.13;;;;;;;;;;5094419;28;20118;-66
2023/12/12 04:17:44;;;;;;;23.45;6.72;;;;;;;;;;5071576;28;20051;-66
2023/12/12 04:20:10;;;;;;;14.25;6.72;;;;;;;;;;5086873;28;20475;-66
2023/12/12 04:22:36;;;;;;;11.55;5.70;;;;;;;;;;5084446;28;20095;-67
2023/12/12 04:25:02;;;;;;;13.93;7.07;;;;;;;;;;5087905;28;20514;-66
2023/12/12 04:27:28;;;;;;;11.77;6.30;;;;;;;;;;5088249;28;20046;-67
2023/12/12 04:29:54;;;;;;;14.63;7.18;;;;;;;;;;5091260;28;20442;-67
2023/12/12 04:32:20;;;;;;;16.55;8.05;;;;;;;;;;5086999;28;20055;-66
2023/12/12 04:34:46;;;;;;;13.55;6.40;;;;;;;;;;5088398;28;20040;-67
2023/12/12 04:37:12;;;;;;;14.55;7.30;;;;;;;;;;5087319;28;20111;-66
2023/12/12 04:39:38;;;;;;;18.75;7.57;;;;;;;;;;5082302;28;20526;-67
2023/12/12 04:42:04;;;;;;;15.23;7.47;;;;;;;;;;5091450;28;20332;-67
2023/12/12 04:44:30;;;;;;;16.30;7.32;;;;;;;;;;5086003;28;20404;-66
2023/12/12 04:46:56;;;;;;;14.95;7.50;;;;;;;;;;5089286;28;20499;-66
2023/12/12 04:49:22;;;;;;;15.18;7.57;;;;;;;;;;5079144;28;20035;-66
2023/12/12 04:51:48;;;;;;;21.38;8.43;;;;;;;;;;5092890;28;20047;-67
2023/12/12 04:54:14;;;;;;;22.25;8.88;;;;;;;;;;5087211;28;20036;-66
2023/12/12 04:56:40;;;;;;;53.85;10.10;;;;;;;;;;5083798;28;20431;-67
2023/12/12 04:59:06;;;;;;;16.88;8.32;;;;;;;;;;5076050;28;20048;-67
2023/12/12 05:01:32;;;;;;;22.70;9.75;;;;;;;;;;5076342;28;20043;-67
2023/12/12 05:03:59;;;;;;;24.48;8.55;;;;;;;;;;5069499;28;20492;-68
2023/12/12 05:06:25;;;;;;;27.50;9.25;;;;;;;;;;5076326;28;20538;-67
2023/12/12 05:08:51;;;;;;;23.80;9.63;;;;;;;;;;5086990;28;20055;-67
2023/12/12 05:11:17;;;;;;;21.00;9.52;;;;;;;;;;5082739;28;20499;-67
2023/12/12 05:13:43;;;;;;;26.27;9.18;;;;;;;;;;5062756;28;20036;-67
2023/12/12 05:16:10;;;;;;;38.28;9.45;;;;;;;;;;5067770;28;20408;-67
2023/12/12 05:18:36;;;;;;;42.92;10.80;;;;;;;;;;5071786;28;20032;-67
2023/12/12 05:21:02;;;;;;;22.13;9.40;;;;;;;;;;5070895;28;20048;-67
2023/12/12 05:23:28;;;;;;;33.95;10.38;;;;;;;;;;5078481;28;20406;-67
2023/12/12 05:25:54;;;;;;;27.60;10.70;;;;;;;;;;5073162;28;20082;-67
2023/12/12 05:28:21;;;;;;;47.45;9.43;;;;;;;;;;5083629;28;20066;-67
2023/12/12 05:30:47;;;;;;;34.53;10.82;;;;;;;;;;5080100;28;20047;-67
2023/12/12 05:33:13;;;;;;;22.73;9.52;;;;;;;;;;5080709;28;20044;-67
2023/12/12 05:35:39;;;;;;;28.35;11.32;;;;;;;;;;5077209;28;20051;-67
2023/12/12 05:38:06;;;;;;;30.13;11.07;;;;;;;;;;5082377;28;20123;-67
2023/12/12 05:40:33;;;;;;;46.60;12.07;;;;;;;;;;5076462;28;20436;-67
2023/12/12 05:42:58;;;;;;;35.15;11.27;;;;;;;;;;5077657;28;20036;-67
2023/12/12 05:45:25;;;;;;;30.77;11.90;;;;;;;;;;5078418;28;20047;-67
2023/12/12 05:47:51;;;;;;;40.63;12.77;;;;;;;;;;5076965;28;20040;-67
2023/12/12 05:50:17;;;;;;;30.60;13.10;;;;;;;;;;5078616;28;20037;-67
2023/12/12 05:52:43;;;;;;;44.67;13.68;;;;;;;;;;5079819;28;20470;-67
2023/12/12 05:55:09;;;;;;;39.53;12.80;;;;;;;;;;5082279;28;20036;-67
2023/12/12 05:57:35;;;;;;;43.55;13.63;;;;;;;;;;5082988;28;20431;-68
2023/12/12 06:00:02;;;;;;;47.80;14.77;;;;;;;;;;5089388;28;20043;-67
2023/12/12 06:02:28;;;;;;;58.88;16.00;;;;;;;;;;5081283;28;20055;-67
2023/12/12 06:04:54;;;;;;;46.58;14.82;;;;;;;;;;5056420;28;20507;-67
2023/12/12 06:07:21;;;;;;;48.80;15.02;;;;;;;;;;5084317;28;20036;-67
2023/12/12 06:09:47;;;;;;;51.95;15.60;;;;;;;;;;5081191;28;20033;-67
2023/12/12 06:12:14;;;;;;;54.75;17.15;;;;;;;;;;5081110;28;20105;-67
2023/12/12 06:14:40;;;;;;;52.33;16.00;;;;;;;;;;5087332;28;20069;-67
2023/12/12 06:17:06;;;;;;;59.47;17.40;;;;;;;;;;5075130;28;20044;-67
2023/12/12 06:19:32;;;;;;;51.47;15.57;;;;;;;;;;5083419;28;20104;-67
2023/12/12 06:21:58;;;;;;;53.83;15.77;;;;;;;;;;5089355;28;20050;-67
2023/12/12 06:24:24;;;;;;;49.08;16.42;;;;;;;;;;5090681;28;20488;-67
2023/12/12 06:26:50;;;;;;;61.75;17.08;;;;;;;;;;5085873;28;20040;-67
2023/12/12 06:29:16;;;;;;;59.53;17.75;;;;;;;;;;5090441;28;20050;-67
2023/12/12 06:31:42;;;;;;;89.20;18.73;;;;;;;;;;5085443;28;20047;-67
2023/12/12 06:34:10;;;;;;;52.80;17.02;;;;;;;;;;5080533;28;20037;-67
2023/12/12 06:36:36;;;;;;;59.05;18.05;;;;;;;;;;5074904;28;20127;-67
2023/12/12 06:39:03;;;;;;;65.63;19.25;;;;;;;;;;5072329;28;20114;-67
2023/12/12 06:41:29;;;;;;;65.72;18.83;;;;;;;;;;5067417;28;20068;-67
2023/12/12 06:43:55;;;;;;;79.20;20.85;;;;;;;;;;5076881;28;20072;-67
2023/12/12 06:46:21;;;;;;;62.85;21.17;;;;;;;;;;5076790;28;20505;-67
2023/12/12 06:48:47;;;;;;;72.30;22.15;;;;;;;;;;5075535;28;20488;-67
2023/12/12 06:51:13;;;;;;;94.35;25.85;;;;;;;;;;5072755;28;20479;-67
2023/12/12 06:53:39;;;;;;;93.15;26.05;;;;;;;;;;5076074;28;20080;-67
2023/12/12 06:56:06;;;;;;;118.88;26.48;;;;;;;;;;5076366;28;20424;-67
2023/12/12 06:58:32;;;;;;;101.47;23.65;;;;;;;;;;5080986;28;20067;-66
2023/12/12 07:00:58;;;;;;;88.65;23.25;;;;;;;;;;5049940;28;20072;-66
2023/12/12 07:03:24;;;;;;;83.18;23.90;;;;;;;;;;5060738;28;20518;-66
2023/12/12 07:05:51;;;;;;;99.55;23.88;;;;;;;;;;5077410;28;20123;-66
2023/12/12 07:08:20;;;;;;;84.13;23.20;;;;;;;;;;5074921;28;20077;-66
2023/12/12 07:10:46;;;;;;;99.07;24.55;;;;;;;;;;5077498;28;20048;-66
2023/12/12 07:13:12;;;;;;;96.75;25.40;;;;;;;;;;5078681;28;20043;-66
2023/12/12 07:15:39;;;;;;;81.70;24.55;;;;;;;;;;5076849;28;20044;-66
2023/12/12 07:18:10;;;;;;;91.40;26.23;;;;;;;;;;5074765;28;20105;-66
2023/12/12 07:20:37;;;;;;;85.70;25.67;;;;;;;;;;5074388;28;20496;-66
2023/12/12 07:23:06;;;;;;;82.03;24.15;;;;;;;;;;5072409;28;20098;-66
2023/12/12 07:25:32;;;;;;;84.78;21.23;;;;;;;;;;5075986;28;20071;-66
2023/12/12 07:27:58;;;;;;;168.05;25.83;;;;;;;;;;5069777;28;20385;-67
2023/12/12 07:30:24;;;;;;;101.38;16.30;;;;;;;;;;5077636;28;20036;-66
2023/12/12 07:32:50;;;;;;;152.23;17.17;;;;;;;;;;5076551;28;20040;-66
2023/12/12 07:35:19;;;;;;;229.25;20.20;;;;;;;;;;5080296;28;20126;-66
2023/12/12 07:37:45;;;;;;;142.02;15.88;;;;;;;;;;5075783;28;20123;-66
2023/12/12 07:40:11;;;;;;;145.88;14.55;;;;;;;;;;5083641;28;20055;-67
2023/12/12 07:42:37;;;;;;;125.65;16.02;;;;;;;;;;5081892;28;20419;-66
2023/12/12 07:45:03;;;;;;;102.45;14.98;;;;;;;;;;5081344;28;20048;-66
2023/12/12 07:47:29;;;;;;;112.97;13.27;;;;;;;;;;5079683;28;20044;-67
2023/12/12 07:49:56;;;;;;;94.65;12.40;;;;;;;;;;5078804;28;20583;-67
2023/12/12 07:52:22;;;;;;;70.68;12.98;;;;;;;;;;5077610;28;20100;-66
2023/12/12 07:54:48;;;;;;;78.43;9.55;;;;;;;;;;5076277;28;20071;-66
2023/12/12 07:57:14;;;;;;;218.55;19.48;;;;;;;;;;5082324;28;20051;-66
2023/12/12 07:59:40;;;;;;;72.55;12.00;;;;;;;;;;5080854;28;20044;-66
2023/12/12 08:02:06;;;;;;;75.32;14.82;;;;;;;;;;5081116;28;20465;-66
2023/12/12 08:04:32;;;;;;;48.83;9.30;;;;;;;;;;5082667;28;20039;-68
2023/12/12 08:06:59;;;;;;;73.60;12.10;;;;;;;;;;5081243;28;20116;-66
2023/12/12 08:09:25;;;;;;;74.07;9.60;;;;;;;;;;5082945;28;20040;-66
2023/12/12 08:11:52;;;;;;;229.77;18.15;;;;;;;;;;5080570;28;20033;-66
2023/12/12 08:14:18;;;;;;;195.35;18.27;;;;;;;;;;5073905;28;20444;-65
2023/12/12 08:16:44;;;;;;;947.20;84.38;;;;;;;;;;5078234;28;20094;-66
2023/12/12 08:19:10;;;;;;;74.47;11.68;;;;;;;;;;5078887;28;20499;-66
2023/12/12 08:21:36;;;;;;;49.25;10.18;;;;;;;;;;5079677;28;20097;-66
2023/12/12 08:24:03;;;;;;;65.97;10.23;;;;;;;;;;5074624;28;20160;-65
2023/12/12 08:26:29;;;;;;;44.88;11.10;;;;;;;;;;5078619;28;20423;-66
2023/12/12 08:28:55;;;;;;;52.85;10.88;;;;;;;;;;5083486;28;20045;-66
2023/12/12 08:31:23;;;;;;;89.53;11.35;;;;;;;;;;5082299;28;20119;-66
2023/12/12 08:33:49;;;;;;;66.25;11.00;;;;;;;;;;5078263;28;20060;-65
2023/12/12 08:36:15;;;;;;;136.68;16.52;;;;;;;;;;5087403;28;20047;-66
2023/12/12 08:38:43;;;;;;;79.03;12.90;;;;;;;;;;5085342;28;20047;-66
2023/12/12 08:41:09;;;;;;;77.28;12.38;;;;;;;;;;5087038;28;20107;-66
2023/12/12 08:43:35;;;;;;;40.95;8.75;;;;;;;;;;5083829;28;20449;-64
2023/12/12 08:46:01;;;;;;;53.15;10.65;;;;;;;;;;5082779;28;20097;-65
2023/12/12 08:48:27;;;;;;;50.20;12.02;;;;;;;;;;5087712;22;20090;-64
2023/12/12 08:50:53;;;;;;;75.22;10.63;;;;;;;;;;5071552;28;20037;-64
2023/12/12 08:53:26;;;;;;;62.92;14.93;;;;;;;;;;5077430;28;20090;-65
2023/12/12 08:55:52;;;;;;;145.25;20.50;;;;;;;;;;5050631;28;20048;-64
2023/12/12 08:58:18;;;;;;;71.88;17.75;;;;;;;;;;5077374;28;20127;-64
2023/12/12 09:00:44;;;;;;;84.25;19.63;;;;;;;;;;5071537;28;20495;-64
2023/12/12 09:03:10;;;;;;;69.75;23.33;;;;;;;;;;5072417;28;20059;-63
2023/12/12 09:05:37;;;;;;;81.90;25.00;;;;;;;;;;5075374;28;20086;-63
2023/12/12 09:08:03;;;;;;;156.95;29.17;;;;;;;;;;5056566;28;20044;-64
2023/12/12 09:10:29;;;;;;;149.68;29.95;;;;;;;;;;5068932;28;20043;-65
2023/12/12 09:12:55;;;;;;;200.23;32.10;;;;;;;;;;5073283;28;20045;-64
2023/12/12 09:15:21;;;;;;;240.77;33.13;;;;;;;;;;5077162;28;20509;-64
2023/12/12 09:17:47;;;;;;;315.42;40.35;;;;;;;;;;5082598;28;20060;-64
2023/12/12 09:20:13;;;;;;;156.10;29.85;;;;;;;;;;5072532;28;20046;-64
2023/12/12 09:22:39;;;;;;;246.27;37.08;;;;;;;;;;5070017;28;20037;-65
2023/12/12 09:25:05;;;;;;;210.40;31.13;;;;;;;;;;5076422;28;20033;-65
2023/12/12 09:27:31;;;;;;;193.18;31.33;;;;;;;;;;5072869;28;20068;-65
2023/12/12 09:29:57;;;;;;;164.48;29.40;;;;;;;;;;5071731;28;20500;-64
2023/12/12 09:32:23;;;;;;;159.15;29.15;;;;;;;;;;5072764;28;20040;-64
2023/12/12 09:34:49;;;;;;;131.90;26.45;;;;;;;;;;5080894;28;20048;-65
2023/12/12 09:37:16;;;;;;;119.10;25.38;;;;;;;;;;5081046;28;20048;-65
2023/12/12 09:39:42;;;;;;;126.30;26.80;;;;;;;;;;5072969;28;20120;-65
2023/12/12 09:42:11;;;;;;;157.40;29.45;;;;;;;;;;5037672;28;20488;-65
2023/12/12 09:44:37;;;;;;;145.85;28.05;;;;;;;;;;5072819;28;20090;-64
2023/12/12 09:47:04;;;;;;;103.55;27.23;;;;;;;;;;5089107;28;20415;-64
2023/12/12 09:49:30;;;;;;;148.82;30.95;;;;;;;;;;5072605;28;20128;-65
2023/12/12 09:51:57;;;;;;;153.73;30.02;;;;;;;;;;5072240;28;20048;-65
2023/12/12 09:54:24;;;;;;;120.25;28.30;;;;;;;;;;5072890;28;20041;-65
2023/12/12 09:56:52;;;;;;;175.15;30.65;;;;;;;;;;5079500;28;20048;-65
2023/12/12 09:59:18;;;;;;;168.35;30.30;;;;;;;;;;5059256;28;20040;-65
2023/12/12 10:01:47;;;;;;;100.00;25.50;;;;;;;;;;5054114;28;20107;-65
2023/12/12 10:04:13;;;;;;;213.15;33.80;;;;;;;;;;5072422;28;20044;-64
2023/12/12 10:06:42;;;;;;;123.05;28.38;;;;;;;;;;5072119;28;20040;-65
2023/12/12 10:09:11;;;;;;;124.45;26.77;;;;;;;;;;5054429;28;20048;-65
2023/12/12 10:11:37;;;;;;;113.47;29.52;;;;;;;;;;5069447;28;20040;-65
2023/12/12 10:14:03;;;;;;;188.80;32.13;;;;;;;;;;5073440;28;20047;-65
2023/12/12 10:16:32;;;;;;;166.18;32.30;;;;;;;;;;5071482;28;20043;-66
2023/12/12 10:19:01;;;;;;;139.40;31.13;;;;;;;;;;5085674;28;20079;-65
2023/12/12 10:21:28;;;;;;;142.30;32.10;;;;;;;;;;5092416;28;20043;-65
2023/12/12 10:23:55;;;;;;;161.73;33.45;;;;;;;;;;5082300;28;20047;-65
2023/12/12 10:26:25;;;;;;;143.25;33.08;;;;;;;;;;5053585;28;20119;-64
2023/12/12 10:28:52;;;;;;;243.40;41.92;;;;;;;;;;5071103;28;20064;-64
2023/12/12 10:31:19;;;;;;;194.85;38.83;;;;;;;;;;5075183;28;20070;-65
2023/12/12 10:33:45;;;;;;;137.63;35.35;;;;;;;;;;5075367;28;20466;-64
2023/12/12 10:36:11;;;;;;;146.75;37.55;;;;;;;;;;5082980;28;20522;-65
2023/12/12 10:38:41;;;;;;;115.88;33.03;;;;;;;;;;5068501;28;20419;-65
2023/12/12 10:41:10;;;;;;;126.85;36.08;;;;;;;;;;5069913;28;20044;-65
2023/12/12 10:43:40;;;;;;;159.63;37.92;;;;;;;;;;5079861;28;20044;-65
2023/12/12 10:46:06;;;;;;;137.38;35.33;;;;;;;;;;5079282;28;20043;-65
2023/12/12 10:48:34;;;;;;;147.35;35.15;;;;;;;;;;5053981;28;20055;-63
2023/12/12 10:51:00;;;;;;;131.82;33.40;;;;;;;;;;5079945;28;20101;-65
2023/12/12 10:53:27;;;;;;;110.70;31.30;;;;;;;;;;5077288;28;20492;-65
2023/12/12 10:55:55;;;;;;;138.68;35.78;;;;;;;;;;5071572;28;20045;-65
2023/12/12 10:58:22;;;;;;;112.43;29.75;;;;;;;;;;5071040;28;20044;-64
2023/12/12 11:00:49;;;;;;;106.47;32.10;;;;;;;;;;5053338;28;20169;-65
2023/12/12 11:03:15;;;;;;;131.00;32.53;;;;;;;;;;5070356;28;20045;-65
2023/12/12 11:05:41;;;;;;;89.68;27.90;;;;;;;;;;5071848;28;20040;-65
2023/12/12 11:08:08;;;;;;;91.28;28.90;;;;;;;;;;5081780;28;20036;-65
2023/12/12 11:10:34;;;;;;;94.03;30.15;;;;;;;;;;5072179;28;20128;-66
2023/12/12 11:13:02;;;;;;;105.68;29.02;;;;;;;;;;5071899;28;20120;-65
2023/12/12 11:15:29;;;;;;;114.35;29.95;;;;;;;;;;5071755;28;20054;-65
2023/12/12 11:17:55;;;;;;;109.35;30.67;;;;;;;;;;5063449;28;20044;-65
2023/12/12 11:20:21;;;;;;;107.22;31.55;;;;;;;;;;5073979;28;20099;-65
2023/12/12 11:22:49;;;;;;;98.28;31.10;;;;;;;;;;5065749;28;20037;-66
2023/12/12 11:25:17;;;;;;;119.95;31.98;;;;;;;;;;5058320;28;20035;-65
2023/12/12 11:27:48;;;;;;;98.40;28.98;;;;;;;;;;5051336;28;20087;-65
2023/12/12 11:30:14;;;;;;;101.30;29.67;;;;;;;;;;5064713;28;20124;-66
2023/12/12 11:32:42;;;;;;;108.45;30.60;;;;;;;;;;5072689;28;20286;-66
2023/12/12 11:35:28;;;;;;;110.30;31.40;;;;;;;;;;5046402;28;20059;-66
2023/12/12 11:37:54;;;;;;;110.68;31.65;;;;;;;;;;5084645;28;20070;-66
2023/12/12 11:40:22;;;;;;;115.57;30.63;;;;;;;;;;5070877;28;20044;-66
2023/12/12 11:42:48;;;;;;;167.38;35.75;;;;;;;;;;5073445;28;20504;-66
2023/12/12 11:45:29;;;;;;;111.47;33.13;;;;;;;;;;5066115;28;20041;-66
2023/12/12 11:47:55;;;;;;;125.43;33.08;;;;;;;;;;5076727;28;20112;-64
2023/12/12 11:50:27;;;;;;;133.48;33.53;;;;;;;;;;5072184;28;20094;-65
2023/12/12 11:52:53;;;;;;;109.28;30.58;;;;;;;;;;5069659;28;20045;-64
2023/12/12 11:55:20;;;;;;;110.80;31.35;;;;;;;;;;5084648;28;20051;-65
2023/12/12 11:57:47;;;;;;;119.60;31.85;;;;;;;;;;5078898;28;20507;-65
2023/12/12 12:00:17;;;;;;;205.85;37.65;;;;;;;;;;5079537;28;20049;-66
2023/12/12 12:02:43;;;;;;;111.35;30.10;;;;;;;;;;5060391;28;20040;-65
2023/12/12 12:05:09;;;;;;;93.57;29.55;;;;;;;;;;5071154;28;20033;-65
2023/12/12 12:07:38;;;;;;;103.47;31.27;;;;;;;;;;5058650;28;20120;-65
2023/12/12 12:10:04;;;;;;;101.57;29.95;;;;;;;;;;5071053;28;20086;-65
2023/12/12 12:12:31;;;;;;;104.90;29.30;;;;;;;;;;5073440;28;20497;-65
2023/12/12 12:15:07;;;;;;;112.20;30.77;;;;;;;;;;5073452;28;20048;-65
2023/12/12 12:17:36;;;;;;;114.68;31.38;;;;;;;;;;5074363;28;20090;-65
2023/12/12 12:20:03;;;;;;;111.07;31.55;;;;;;;;;;5074283;28;20048;-64
2023/12/12 12:22:29;;;;;;;118.07;32.03;;;;;;;;;;5075453;28;20047;-65
2023/12/12 12:24:55;;;;;;;113.03;33.65;;;;;;;;;;5074325;28;20497;-65
2023/12/12 12:27:21;;;;;;;114.95;32.92;;;;;;;;;;5078423;28;20115;-65
2023/12/12 12:30:00;;;;;;;126.05;33.88;;;;;;;;;;5073096;28;20484;-65
2023/12/12 12:32:26;;;;;;;122.40;32.70;;;;;;;;;;5070186;28;20051;-65
2023/12/12 12:35:11;;;;;;;138.35;34.35;;;;;;;;;;5066112;28;20408;-65
2023/12/12 12:37:37;;;;;;;113.50;32.28;;;;;;;;;;5057840;28;20090;-65
2023/12/12 12:40:04;;;;;;;141.18;35.42;;;;;;;;;;5072553;28;20041;-65
2023/12/12 12:42:34;;;;;;;131.15;32.15;;;;;;;;;;5056108;28;20048;-65
2023/12/12 12:45:00;;;;;;;142.40;36.92;;;;;;;;;;5073778;28;20068;-65
2023/12/12 12:47:26;;;;;;;139.88;35.17;;;;;;;;;;5060252;28;20116;-65
2023/12/12 12:49:52;;;;;;;135.02;36.00;;;;;;;;;;5066107;28;20466;-65
2023/12/12 12:52:18;;;;;;;143.27;36.60;;;;;;;;;;5071905;28;20040;-65
2023/12/12 12:54:45;;;;;;;154.55;37.00;;;;;;;;;;5075495;28;20068;-65
2023/12/12 12:57:14;;;;;;;131.00;38.00;;;;;;;;;;5072108;28;20094;-65
2023/12/12 12:59:41;;;;;;;140.57;37.22;;;;;;;;;;5072182;28;20059;-65
2023/12/12 13:02:10;;;;;;;142.73;37.05;;;;;;;;;;5068734;28;20040;-65
2023/12/12 13:04:40;;;;;;;153.27;38.83;;;;;;;;;;5072564;28;20123;-65
2023/12/12 13:07:07;;;;;;;160.23;40.47;;;;;;;;;;5070357;28;20488;-65
2023/12/12 13:09:33;;;;;;;148.05;41.58;;;;;;;;;;5055682;28;20120;-65
2023/12/12 13:12:03;;;;;;;146.82;39.60;;;;;;;;;;5056659;28;20041;-65
2023/12/12 13:14:29;;;;;;;161.63;39.58;;;;;;;;;;5081411;28;20427;-65
2023/12/12 13:16:55;;;;;;;151.70;40.63;;;;;;;;;;5071719;28;20070;-65
2023/12/12 13:19:26;;;;;;;166.52;43.45;;;;;;;;;;5065554;28;20381;-65
2023/12/12 13:21:52;;;;;;;168.02;44.78;;;;;;;;;;5072278;28;20048;-64
2023/12/12 13:24:18;;;;;;;149.52;41.90;;;;;;;;;;5072432;28;20140;-64
2023/12/12 13:26:44;;;;;;;174.95;41.88;;;;;;;;;;5065409;28;20045;-63
2023/12/12 13:29:10;;;;;;;160.75;43.92;;;;;;;;;;5070155;28;20036;-64
2023/12/12 13:31:36;;;;;;;146.68;42.20;;;;;;;;;;5067812;28;20388;-64
2023/12/12 13:34:02;;;;;;;152.32;42.83;;;;;;;;;;5072417;28;20044;-65
2023/12/12 13:36:28;;;;;;;171.27;44.00;;;;;;;;;;5073610;28;20382;-65
2023/12/12 13:38:55;;;;;;;131.85;38.72;;;;;;;;;;5081765;28;20062;-63
2023/12/12 13:41:21;;;;;;;156.55;40.58;;;;;;;;;;5062665;28;20048;-65
2023/12/12 13:43:47;;;;;;;125.55;38.00;;;;;;;;;;5055077;28;20440;-64
2023/12/12 13:46:14;;;;;;;159.38;41.63;;;;;;;;;;5076190;28;20043;-64
2023/12/12 13:48:40;;;;;;;136.13;40.28;;;;;;;;;;5085017;28;20407;-64
2023/12/12 13:51:07;;;;;;;132.77;37.72;;;;;;;;;;5090815;28;20036;-64
2023/12/12 13:53:32;;;;;;;132.80;37.00;;;;;;;;;;5072810;28;20520;-63
2023/12/12 13:55:58;;;;;;;145.07;39.17;;;;;;;;;;5072148;28;20045;-64
2023/12/12 13:58:24;;;;;;;137.50;39.00;;;;;;;;;;5072498;28;20093;-63
2023/12/12 14:00:50;;;;;;;131.10;38.83;;;;;;;;;;5072861;28;20086;-63
2023/12/12 14:03:17;;;;;;;131.95;38.42;;;;;;;;;;5072772;28;20515;-63
2023/12/12 14:05:43;;;;;;;113.30;34.55;;;;;;;;;;5071895;28;20581;-63
2023/12/12 14:08:09;;;;;;;120.38;35.78;;;;;;;;;;5072737;28;20074;-62
2023/12/12 14:10:35;;;;;;;125.68;36.60;;;;;;;;;;5034506;28;20413;-62
2023/12/12 14:13:02;;;;;;;115.10;35.17;;;;;;;;;;5059620;28;20039;-63
2023/12/12 14:15:28;;;;;;;133.75;36.25;;;;;;;;;;5074056;28;20039;-63